Time;durP1;ratioP1;P1;durP2;ratioP2;P2;SDS_P1;SDS_P2;PMS_P1;PMS_P2;Temp;Humidity;BMP_temperature;BMP_pressure;BME280_temperature;BME280_humidity;BME280_pressure;Samples;Min_cycle;Max_cycle;Signal;HPM_P1;HPM_P2
2020/12/06 00:00:56;;;;;;;17.50;14.90;;;;;;;;;;5056930;28;20541;-60
2020/12/06 00:03:22;;;;;;;17.03;14.57;;;;;;;;;;5057466;28;20223;-61
2020/12/06 00:05:47;;;;;;;16.30;13.80;;;;;;;;;;5057776;28;20228;-60
2020/12/06 00:08:12;;;;;;;18.40;15.47;;;;;;;;;;5057359;28;20309;-61
2020/12/06 00:10:37;;;;;;;17.30;14.80;;;;;;;;;;5056951;28;20241;-60
2020/12/06 00:13:03;;;;;;;18.93;15.33;;;;;;;;;;5057612;28;20302;-60
2020/12/06 00:15:28;;;;;;;16.20;14.50;;;;;;;;;;5056873;28;20235;-60
2020/12/06 00:17:53;;;;;;;17.80;14.80;;;;;;;;;;5057188;28;20317;-61
2020/12/06 00:20:19;;;;;;;15.57;13.40;;;;;;;;;;5056871;28;20608;-61
2020/12/06 00:22:45;;;;;;;15.77;13.80;;;;;;;;;;5056880;28;20225;-60
2020/12/06 00:25:10;;;;;;;17.77;15.90;;;;;;;;;;5056908;28;20557;-60
2020/12/06 00:27:36;;;;;;;19.10;15.07;;;;;;;;;;5056996;28;20441;-60
2020/12/06 00:30:05;;;;;;;18.67;15.80;;;;;;;;;;5056953;28;20224;-60
2020/12/06 00:32:30;;;;;;;18.33;16.00;;;;;;;;;;5056393;28;20443;-60
2020/12/06 00:34:55;;;;;;;17.17;14.90;;;;;;;;;;5057366;28;20452;-60
2020/12/06 00:37:20;;;;;;;18.00;15.17;;;;;;;;;;5056268;28;20237;-61
2020/12/06 00:39:46;;;;;;;20.30;15.33;;;;;;;;;;5068855;28;20231;-61
2020/12/06 00:42:11;;;;;;;20.17;15.83;;;;;;;;;;5064477;28;20224;-61
2020/12/06 00:44:37;;;;;;;20.23;15.30;;;;;;;;;;5056340;28;20308;-61
2020/12/06 00:47:02;;;;;;;17.63;15.67;;;;;;;;;;5056565;28;20213;-61
2020/12/06 00:49:27;;;;;;;20.53;17.47;;;;;;;;;;5056309;28;20434;-60
2020/12/06 00:51:53;;;;;;;20.67;16.03;;;;;;;;;;5055535;28;20423;-61
2020/12/06 00:54:18;;;;;;;19.17;16.43;;;;;;;;;;5056630;28;20232;-61
2020/12/06 00:56:44;;;;;;;21.90;16.90;;;;;;;;;;5055330;28;20304;-61
2020/12/06 00:59:09;;;;;;;20.50;17.20;;;;;;;;;;5055783;28;20229;-61
2020/12/06 01:01:38;;;;;;;25.67;18.77;;;;;;;;;;5055752;28;20234;-60
2020/12/06 01:04:04;;;;;;;23.83;18.30;;;;;;;;;;5056385;28;20225;-60
2020/12/06 01:06:29;;;;;;;27.90;19.10;;;;;;;;;;5055154;28;20436;-61
2020/12/06 01:08:54;;;;;;;22.30;19.03;;;;;;;;;;5036349;28;20360;-60
2020/12/06 01:11:19;;;;;;;25.30;18.90;;;;;;;;;;5036618;28;20565;-60
2020/12/06 01:13:45;;;;;;;22.07;18.50;;;;;;;;;;5035869;28;20313;-60
2020/12/06 01:16:14;;;;;;;28.13;21.07;;;;;;;;;;5036058;28;20244;-62
2020/12/06 01:18:39;;;;;;;24.97;20.07;;;;;;;;;;5036284;28;20666;-60
2020/12/06 01:21:04;;;;;;;23.50;20.20;;;;;;;;;;5036336;28;20475;-60
2020/12/06 01:23:30;;;;;;;30.40;22.80;;;;;;;;;;5043592;28;20234;-61
2020/12/06 01:25:56;;;;;;;28.80;21.73;;;;;;;;;;5050274;28;20303;-61
2020/12/06 01:28:21;;;;;;;28.50;22.80;;;;;;;;;;5043641;28;20224;-61
2020/12/06 01:30:46;;;;;;;36.83;25.90;;;;;;;;;;5050461;28;20224;-60
2020/12/06 01:33:12;;;;;;;39.40;27.10;;;;;;;;;;5056043;28;20220;-60
2020/12/06 01:35:37;;;;;;;38.57;29.20;;;;;;;;;;5039162;28;20320;-60
2020/12/06 01:38:02;;;;;;;37.63;28.07;;;;;;;;;;5056434;28;20216;-60
2020/12/06 01:40:28;;;;;;;34.00;26.37;;;;;;;;;;5055500;28;20232;-62
2020/12/06 01:42:53;;;;;;;35.40;24.97;;;;;;;;;;5046792;28;20293;-61
2020/12/06 01:45:18;;;;;;;29.67;22.03;;;;;;;;;;5035911;28;20283;-60
2020/12/06 01:47:44;;;;;;;23.00;19.83;;;;;;;;;;5036145;28;20312;-61
2020/12/06 01:50:09;;;;;;;26.43;20.80;;;;;;;;;;5035131;28;20221;-60
2020/12/06 01:52:34;;;;;;;28.17;21.07;;;;;;;;;;5035606;28;20213;-61
2020/12/06 01:55:02;;;;;;;24.50;19.87;;;;;;;;;;5036535;28;20673;-61
2020/12/06 01:57:27;;;;;;;28.27;22.83;;;;;;;;;;5035815;28;20573;-61
2020/12/06 01:59:53;;;;;;;27.00;21.50;;;;;;;;;;5034962;28;20457;-61
2020/12/06 02:02:18;;;;;;;23.97;20.03;;;;;;;;;;5035616;28;20304;-60
2020/12/06 02:04:44;;;;;;;23.87;19.87;;;;;;;;;;5035385;28;20296;-60
2020/12/06 02:07:09;;;;;;;25.33;19.33;;;;;;;;;;5035946;28;20223;-60
2020/12/06 02:09:35;;;;;;;26.30;20.73;;;;;;;;;;5035704;28;20277;-61
2020/12/06 02:12:06;;;;;;;26.50;20.83;;;;;;;;;;5035729;28;20222;-61
2020/12/06 02:14:31;;;;;;;25.17;19.40;;;;;;;;;;5035533;28;20552;-61
2020/12/06 02:16:56;;;;;;;26.20;20.27;;;;;;;;;;5035397;28;20439;-61
2020/12/06 02:19:21;;;;;;;26.50;20.53;;;;;;;;;;5035846;28;20229;-61
2020/12/06 02:21:47;;;;;;;25.47;18.87;;;;;;;;;;5033928;28;20222;-61
2020/12/06 02:24:15;;;;;;;24.10;19.13;;;;;;;;;;5049271;28;20298;-60
2020/12/06 02:26:47;;;;;;;24.37;19.07;;;;;;;;;;5055006;28;20266;-60
2020/12/06 02:29:13;;;;;;;24.30;20.30;;;;;;;;;;5055789;28;20456;-60
2020/12/06 02:31:39;;;;;;;25.80;18.90;;;;;;;;;;5054896;28;20451;-60
2020/12/06 02:34:10;;;;;;;24.10;19.50;;;;;;;;;;5046350;28;20220;-60
2020/12/06 02:36:36;;;;;;;24.10;18.10;;;;;;;;;;5045853;28;20241;-61
2020/12/06 02:39:05;;;;;;;22.67;17.97;;;;;;;;;;5055163;28;20449;-60
2020/12/06 02:41:37;;;;;;;21.20;18.40;;;;;;;;;;5054097;28;20498;-61
2020/12/06 02:44:03;;;;;;;25.27;20.53;;;;;;;;;;5055737;28;20423;-61
2020/12/06 02:46:29;;;;;;;19.63;17.53;;;;;;;;;;5055108;28;20456;-61
2020/12/06 02:48:54;;;;;;;25.10;19.20;;;;;;;;;;5055468;28;20461;-60
2020/12/06 02:51:19;;;;;;;22.33;19.10;;;;;;;;;;5055464;28;20218;-61
2020/12/06 02:53:44;;;;;;;21.67;17.60;;;;;;;;;;5055201;28;20217;-60
2020/12/06 02:56:10;;;;;;;23.57;18.13;;;;;;;;;;5055550;28;20301;-60
2020/12/06 02:58:35;;;;;;;20.83;18.57;;;;;;;;;;5054874;28;20645;-60
2020/12/06 03:01:00;;;;;;;23.50;18.33;;;;;;;;;;5055155;28;20316;-60
2020/12/06 03:03:25;;;;;;;26.90;19.50;;;;;;;;;;5055203;28;20261;-61
2020/12/06 03:05:51;;;;;;;19.73;17.53;;;;;;;;;;5055070;28;20227;-61
2020/12/06 03:08:16;;;;;;;22.87;17.87;;;;;;;;;;5055339;28;20314;-61
2020/12/06 03:10:41;;;;;;;24.50;17.83;;;;;;;;;;5054832;28;20338;-61
2020/12/06 03:13:06;;;;;;;21.43;17.33;;;;;;;;;;5055776;28;20302;-61
2020/12/06 03:15:32;;;;;;;24.33;17.40;;;;;;;;;;5054919;28;20640;-61
2020/12/06 03:17:57;;;;;;;25.50;17.67;;;;;;;;;;5055138;28;20318;-61
2020/12/06 03:20:22;;;;;;;22.30;17.37;;;;;;;;;;5058560;28;20225;-60
2020/12/06 03:22:47;;;;;;;22.00;17.20;;;;;;;;;;5056359;28;20316;-61
2020/12/06 03:25:13;;;;;;;22.67;17.57;;;;;;;;;;5038996;28;20622;-60
2020/12/06 03:27:38;;;;;;;21.03;16.53;;;;;;;;;;5038827;28;20219;-60
2020/12/06 03:30:03;;;;;;;23.10;17.20;;;;;;;;;;5038927;28;20304;-59
2020/12/06 03:32:28;;;;;;;20.57;16.40;;;;;;;;;;5038632;28;20220;-60
2020/12/06 03:34:54;;;;;;;26.90;17.83;;;;;;;;;;5054082;28;20589;-60
2020/12/06 03:37:19;;;;;;;19.17;16.47;;;;;;;;;;5058643;28;20296;-61
2020/12/06 03:39:44;;;;;;;19.80;16.47;;;;;;;;;;5058485;28;20221;-61
2020/12/06 03:42:12;;;;;;;19.93;15.57;;;;;;;;;;5058449;28;20240;-60
2020/12/06 03:44:37;;;;;;;20.73;17.20;;;;;;;;;;5058383;28;20657;-60
2020/12/06 03:47:02;;;;;;;23.97;16.13;;;;;;;;;;5058589;28;20525;-60
2020/12/06 03:49:27;;;;;;;25.00;17.30;;;;;;;;;;5058214;28;20555;-61
2020/12/06 03:51:53;;;;;;;17.00;15.20;;;;;;;;;;5057191;28;20229;-61
2020/12/06 03:54:18;;;;;;;20.67;15.70;;;;;;;;;;5058516;28;20295;-61
2020/12/06 03:56:43;;;;;;;20.00;16.93;;;;;;;;;;5057969;28;20224;-60
2020/12/06 03:59:08;;;;;;;21.30;17.33;;;;;;;;;;5058018;28;20675;-60
2020/12/06 04:01:34;;;;;;;19.07;16.43;;;;;;;;;;5057640;28;20222;-60
2020/12/06 04:03:59;;;;;;;21.03;17.00;;;;;;;;;;5058039;28;20205;-60
2020/12/06 04:06:24;;;;;;;20.50;17.20;;;;;;;;;;5057944;28;20270;-60
2020/12/06 04:08:49;;;;;;;17.10;14.80;;;;;;;;;;5057671;28;20639;-60
2020/12/06 04:11:15;;;;;;;21.00;16.10;;;;;;;;;;5057959;28;20304;-60
2020/12/06 04:13:40;;;;;;;20.20;16.00;;;;;;;;;;5057676;28;20217;-60
2020/12/06 04:16:05;;;;;;;21.00;16.73;;;;;;;;;;5057804;28;20362;-60
2020/12/06 04:18:30;;;;;;;18.83;16.13;;;;;;;;;;5058123;28;20721;-61
2020/12/06 04:20:56;;;;;;;18.67;15.17;;;;;;;;;;5057506;28;20221;-61
2020/12/06 04:23:21;;;;;;;18.83;16.10;;;;;;;;;;5050565;28;20218;-60
2020/12/06 04:25:46;;;;;;;18.10;15.13;;;;;;;;;;5037070;28;20214;-60
2020/12/06 04:28:11;;;;;;;24.43;17.67;;;;;;;;;;5037462;28;20304;-60
2020/12/06 04:30:38;;;;;;;19.50;15.00;;;;;;;;;;5036330;28;20241;-61
2020/12/06 04:33:03;;;;;;;18.80;16.70;;;;;;;;;;5038241;28;20358;-61
2020/12/06 04:35:31;;;;;;;22.07;16.23;;;;;;;;;;5057195;28;20856;-61
2020/12/06 04:37:56;;;;;;;17.13;15.27;;;;;;;;;;5056356;28;20637;-60
2020/12/06 04:40:22;;;;;;;20.90;15.20;;;;;;;;;;5057644;28;20430;-60
2020/12/06 04:42:47;;;;;;;23.47;16.50;;;;;;;;;;5057245;28;20245;-60
2020/12/06 04:45:15;;;;;;;16.93;15.13;;;;;;;;;;5039854;28;20220;-60
2020/12/06 04:47:47;;;;;;;20.77;16.80;;;;;;;;;;5055709;28;20612;-60
2020/12/06 04:50:18;;;;;;;16.80;14.70;;;;;;;;;;5057290;28;20908;-60
2020/12/06 04:52:44;;;;;;;20.53;16.57;;;;;;;;;;5056540;28;20483;-61
2020/12/06 04:55:12;;;;;;;22.80;16.10;;;;;;;;;;5057270;28;20427;-61
2020/12/06 04:57:38;;;;;;;18.30;14.97;;;;;;;;;;5056814;28;20722;-61
2020/12/06 05:00:08;;;;;;;19.27;15.90;;;;;;;;;;5057053;28;20455;-61
2020/12/06 05:02:37;;;;;;;18.67;15.53;;;;;;;;;;5056889;28;20479;-61
2020/12/06 05:05:03;;;;;;;20.70;15.97;;;;;;;;;;5056608;28;20448;-61
2020/12/06 05:07:30;;;;;;;23.20;17.53;;;;;;;;;;5057204;28;20809;-60
2020/12/06 05:09:56;;;;;;;23.83;16.87;;;;;;;;;;5056587;28;20459;-60
2020/12/06 05:12:21;;;;;;;24.87;17.87;;;;;;;;;;5056431;28;20438;-61
2020/12/06 05:14:46;;;;;;;18.63;14.93;;;;;;;;;;5056637;28;20221;-60
2020/12/06 05:17:12;;;;;;;19.90;14.83;;;;;;;;;;5056892;28;20225;-61
2020/12/06 05:19:37;;;;;;;21.47;16.20;;;;;;;;;;5055928;28;20612;-60
2020/12/06 05:22:02;;;;;;;18.67;15.13;;;;;;;;;;5055867;28;20225;-60
2020/12/06 05:24:28;;;;;;;21.60;17.10;;;;;;;;;;5039610;28;20249;-60
2020/12/06 05:26:53;;;;;;;22.60;16.23;;;;;;;;;;5035933;28;20227;-61
2020/12/06 05:29:18;;;;;;;20.87;15.93;;;;;;;;;;5035212;28;20225;-61
2020/12/06 05:31:44;;;;;;;20.87;17.77;;;;;;;;;;5035571;28;20326;-60
2020/12/06 05:34:09;;;;;;;23.27;16.00;;;;;;;;;;5045875;28;20223;-60
2020/12/06 05:36:41;;;;;;;20.80;16.13;;;;;;;;;;5055893;28;20213;-60
2020/12/06 05:39:06;;;;;;;20.03;15.43;;;;;;;;;;5056133;28;20221;-60
2020/12/06 05:41:32;;;;;;;20.27;15.87;;;;;;;;;;5055783;28;20782;-60
2020/12/06 05:43:57;;;;;;;22.50;17.03;;;;;;;;;;5056105;28;20245;-61
2020/12/06 05:46:23;;;;;;;18.80;15.00;;;;;;;;;;5056319;28;20474;-60
2020/12/06 05:48:48;;;;;;;18.53;16.20;;;;;;;;;;5054592;28;20267;-61
2020/12/06 05:51:15;;;;;;;19.57;15.60;;;;;;;;;;5055671;28;20217;-61
2020/12/06 05:53:40;;;;;;;20.40;15.57;;;;;;;;;;5056212;28;20221;-60
2020/12/06 05:56:18;;;;;;;21.50;15.20;;;;;;;;;;5055519;28;20418;-60
2020/12/06 05:58:45;;;;;;;18.97;15.13;;;;;;;;;;5055498;28;20650;-60
2020/12/06 06:01:11;;;;;;;21.70;15.90;;;;;;;;;;5056015;28;20466;-60
2020/12/06 06:03:40;;;;;;;22.53;15.40;;;;;;;;;;5055962;28;20791;-60
2020/12/06 06:06:08;;;;;;;19.23;15.03;;;;;;;;;;5055384;28;20454;-60
2020/12/06 06:08:35;;;;;;;18.37;15.23;;;;;;;;;;5055679;28;20954;-60
2020/12/06 06:11:17;;;;;;;20.73;14.37;;;;;;;;;;5055094;28;20450;-59
2020/12/06 06:13:47;;;;;;;16.60;14.90;;;;;;;;;;5054424;28;20439;-60
2020/12/06 06:16:12;;;;;;;20.90;15.40;;;;;;;;;;5054116;28;20510;-61
2020/12/06 06:18:38;;;;;;;21.90;15.43;;;;;;;;;;5055369;28;20449;-61
2020/12/06 06:21:03;;;;;;;20.47;14.37;;;;;;;;;;5054987;28;20726;-61
2020/12/06 06:23:29;;;;;;;17.00;14.73;;;;;;;;;;5046970;28;20218;-61
2020/12/06 06:25:54;;;;;;;20.13;16.30;;;;;;;;;;5035253;28;20584;-61
2020/12/06 06:28:19;;;;;;;23.83;14.73;;;;;;;;;;5034821;28;20290;-61
2020/12/06 06:30:44;;;;;;;20.63;16.80;;;;;;;;;;5036171;28;20240;-61
2020/12/06 06:33:13;;;;;;;17.43;13.80;;;;;;;;;;5043111;28;20291;-60
2020/12/06 06:35:48;;;;;;;18.23;13.83;;;;;;;;;;5043164;28;20259;-61
2020/12/06 06:38:13;;;;;;;18.30;14.50;;;;;;;;;;5033368;28;20463;-61
2020/12/06 06:40:40;;;;;;;18.07;14.80;;;;;;;;;;5051932;28;20521;-61
2020/12/06 06:43:05;;;;;;;16.47;14.37;;;;;;;;;;5054867;28;20641;-60
2020/12/06 06:45:43;;;;;;;18.43;15.50;;;;;;;;;;5055155;28;20527;-60
2020/12/06 06:48:11;;;;;;;19.90;14.43;;;;;;;;;;5046196;28;20291;-60
2020/12/06 06:50:37;;;;;;;18.30;14.40;;;;;;;;;;5034373;28;20487;-60
2020/12/06 06:53:03;;;;;;;17.77;15.27;;;;;;;;;;5034977;28;20475;-60
2020/12/06 06:55:46;;;;;;;15.40;13.70;;;;;;;;;;5037857;28;21004;-60
2020/12/06 06:58:12;;;;;;;17.57;13.20;;;;;;;;;;5038581;28;20222;-60
2020/12/06 07:00:37;;;;;;;16.40;14.20;;;;;;;;;;5039083;28;20443;-60
2020/12/06 07:03:02;;;;;;;19.10;14.90;;;;;;;;;;5038555;28;20289;-60
2020/12/06 07:05:28;;;;;;;15.93;14.17;;;;;;;;;;5049923;28;20221;-60
2020/12/06 07:07:54;;;;;;;17.80;15.37;;;;;;;;;;5058803;28;20312;-61
2020/12/06 07:10:24;;;;;;;16.90;13.93;;;;;;;;;;5058644;28;20303;-60
2020/12/06 07:12:57;;;;;;;18.90;13.80;;;;;;;;;;5058788;28;20795;-60
2020/12/06 07:15:24;;;;;;;18.17;13.67;;;;;;;;;;5058527;28;20779;-60
2020/12/06 07:17:52;;;;;;;16.07;13.30;;;;;;;;;;5058695;28;20579;-60
2020/12/06 07:20:19;;;;;;;16.40;13.20;;;;;;;;;;5058169;28;22083;-60
2020/12/06 07:22:46;;;;;;;14.80;12.97;;;;;;;;;;5057147;28;20470;-61
2020/12/06 07:25:12;;;;;;;17.60;13.90;;;;;;;;;;5038156;28;20514;-60
2020/12/06 07:27:37;;;;;;;15.53;13.80;;;;;;;;;;5038389;28;20774;-59
2020/12/06 07:30:06;;;;;;;16.10;13.00;;;;;;;;;;5037932;28;20443;-60
2020/12/06 07:32:31;;;;;;;14.70;12.23;;;;;;;;;;5053768;28;20415;-60
2020/12/06 07:34:56;;;;;;;17.30;13.57;;;;;;;;;;5058032;28;20430;-60
2020/12/06 07:37:22;;;;;;;16.30;12.20;;;;;;;;;;5057849;28;20213;-60
2020/12/06 07:39:48;;;;;;;14.57;13.17;;;;;;;;;;5045881;28;20221;-61
2020/12/06 07:42:25;;;;;;;15.83;12.87;;;;;;;;;;5037655;28;20249;-60
2020/12/06 07:44:52;;;;;;;16.10;11.10;;;;;;;;;;5038004;28;20424;-59
2020/12/06 07:47:18;;;;;;;15.00;11.63;;;;;;;;;;5037434;28;20490;-59
2020/12/06 07:49:45;;;;;;;13.90;12.40;;;;;;;;;;5038008;28;20802;-60
2020/12/06 07:52:15;;;;;;;17.57;12.37;;;;;;;;;;5037615;28;20561;-59
2020/12/06 07:54:40;;;;;;;16.90;12.20;;;;;;;;;;5038043;28;20440;-60
2020/12/06 07:57:07;;;;;;;13.50;11.73;;;;;;;;;;5037381;28;20767;-60
2020/12/06 07:59:33;;;;;;;12.67;11.37;;;;;;;;;;5042019;28;20296;-60
2020/12/06 08:01:59;;;;;;;15.67;12.50;;;;;;;;;;5056869;28;20820;-60
2020/12/06 08:04:28;;;;;;;14.37;10.97;;;;;;;;;;5055848;28;20456;-60
2020/12/06 08:07:00;;;;;;;17.10;12.87;;;;;;;;;;5057214;28;20207;-60
2020/12/06 08:09:27;;;;;;;20.30;12.10;;;;;;;;;;5056743;28;20821;-60
2020/12/06 08:11:54;;;;;;;15.03;11.77;;;;;;;;;;5057290;28;20444;-60
2020/12/06 08:14:20;;;;;;;16.33;11.60;;;;;;;;;;5056686;28;20455;-60
2020/12/06 08:16:59;;;;;;;14.07;11.10;;;;;;;;;;5056947;28;20475;-60
2020/12/06 08:19:25;;;;;;;15.00;12.93;;;;;;;;;;5056788;28;20240;-60
2020/12/06 08:21:50;;;;;;;15.00;11.70;;;;;;;;;;5056777;28;20452;-60
2020/12/06 08:24:22;;;;;;;13.90;12.10;;;;;;;;;;5042738;28;20940;-60
2020/12/06 08:26:48;;;;;;;13.47;12.07;;;;;;;;;;5036235;28;20219;-60
2020/12/06 08:29:14;;;;;;;17.00;12.20;;;;;;;;;;5036782;28;20453;-60
2020/12/06 08:31:40;;;;;;;12.23;10.83;;;;;;;;;;5045061;28;20490;-60
2020/12/06 08:34:13;;;;;;;14.63;11.33;;;;;;;;;;5047311;28;20486;-60
2020/12/06 08:36:38;;;;;;;13.17;10.27;;;;;;;;;;5036600;28;20217;-59
2020/12/06 08:39:21;;;;;;;13.47;10.40;;;;;;;;;;5036131;28;20460;-61
2020/12/06 08:41:47;;;;;;;12.77;11.17;;;;;;;;;;5036561;28;20237;-60
2020/12/06 08:44:12;;;;;;;14.93;11.10;;;;;;;;;;5036866;28;20430;-61
2020/12/06 08:46:48;;;;;;;13.17;11.77;;;;;;;;;;5036523;28;20456;-60
2020/12/06 08:49:15;;;;;;;13.37;10.87;;;;;;;;;;5035740;28;20216;-60
2020/12/06 08:51:47;;;;;;;16.00;11.90;;;;;;;;;;5036118;28;20489;-60
2020/12/06 08:54:12;;;;;;;14.93;11.40;;;;;;;;;;5036250;28;20421;-61
2020/12/06 08:56:39;;;;;;;13.70;10.97;;;;;;;;;;5036478;28;20463;-61
2020/12/06 08:59:09;;;;;;;13.10;11.77;;;;;;;;;;5035927;28;20238;-60
2020/12/06 09:01:51;;;;;;;14.20;12.07;;;;;;;;;;5036217;28;20513;-60
2020/12/06 09:04:17;;;;;;;15.63;11.93;;;;;;;;;;5035879;28;20449;-60
2020/12/06 09:06:43;;;;;;;13.20;11.00;;;;;;;;;;5036042;28;20457;-60
2020/12/06 09:09:08;;;;;;;14.87;11.73;;;;;;;;;;5035710;28;20487;-61
2020/12/06 09:11:34;;;;;;;16.33;12.10;;;;;;;;;;5035934;28;20213;-61
2020/12/06 09:13:59;;;;;;;13.90;11.70;;;;;;;;;;5035823;28;20305;-61
2020/12/06 09:16:24;;;;;;;11.50;10.40;;;;;;;;;;5034591;28;20229;-60
2020/12/06 09:18:50;;;;;;;18.23;11.07;;;;;;;;;;5035649;28;20224;-60
2020/12/06 09:21:15;;;;;;;14.07;12.30;;;;;;;;;;5035183;28;20240;-61
2020/12/06 09:23:40;;;;;;;13.07;10.83;;;;;;;;;;5045132;28;20231;-60
2020/12/06 09:26:06;;;;;;;15.00;10.60;;;;;;;;;;5055224;28;20210;-61
2020/12/06 09:28:32;;;;;;;12.40;10.07;;;;;;;;;;5055447;28;20297;-60
2020/12/06 09:30:57;;;;;;;13.60;10.90;;;;;;;;;;5055268;28;20228;-60
2020/12/06 09:33:23;;;;;;;12.70;11.40;;;;;;;;;;5051435;28;20437;-61
2020/12/06 09:35:48;;;;;;;14.37;12.00;;;;;;;;;;5035584;28;20300;-60
2020/12/06 09:38:13;;;;;;;14.97;11.47;;;;;;;;;;5035059;28;20307;-61
2020/12/06 09:40:39;;;;;;;14.00;11.60;;;;;;;;;;5035608;28;20218;-61
2020/12/06 09:43:04;;;;;;;14.83;11.80;;;;;;;;;;5034699;28;20312;-60
2020/12/06 09:45:30;;;;;;;13.50;12.10;;;;;;;;;;5034592;28;20223;-60
2020/12/06 09:47:55;;;;;;;14.70;12.03;;;;;;;;;;5035357;28;20262;-59
2020/12/06 09:50:20;;;;;;;12.67;11.33;;;;;;;;;;5034505;28;20216;-61
2020/12/06 09:52:45;;;;;;;14.07;11.93;;;;;;;;;;5034945;28;20239;-60
2020/12/06 09:55:11;;;;;;;12.50;11.20;;;;;;;;;;5034557;28;20214;-60
2020/12/06 09:57:36;;;;;;;13.70;11.93;;;;;;;;;;5035236;28;20287;-60
2020/12/06 10:00:03;;;;;;;12.17;11.00;;;;;;;;;;5037707;28;20212;-61
2020/12/06 10:02:28;;;;;;;13.27;11.53;;;;;;;;;;5046445;28;20224;-61
2020/12/06 10:04:53;;;;;;;14.60;11.03;;;;;;;;;;5041245;28;20952;-60
2020/12/06 10:07:21;;;;;;;13.57;11.67;;;;;;;;;;5054513;28;20224;-61
2020/12/06 10:09:46;;;;;;;14.43;11.07;;;;;;;;;;5048087;28;20217;-61
2020/12/06 10:12:11;;;;;;;14.83;11.67;;;;;;;;;;5034503;28;20518;-61
2020/12/06 10:14:36;;;;;;;12.47;10.30;;;;;;;;;;5034566;28;20243;-60
2020/12/06 10:17:02;;;;;;;13.77;11.57;;;;;;;;;;5034768;28;20237;-60
2020/12/06 10:19:27;;;;;;;14.00;11.63;;;;;;;;;;5038198;28;20232;-61
2020/12/06 10:21:52;;;;;;;14.47;10.73;;;;;;;;;;5033334;28;20224;-60
2020/12/06 10:24:17;;;;;;;11.40;10.20;;;;;;;;;;5048519;28;20228;-61
2020/12/06 10:26:43;;;;;;;15.17;11.00;;;;;;;;;;5054640;28;20221;-61
2020/12/06 10:29:08;;;;;;;12.97;11.60;;;;;;;;;;5057497;28;20227;-61
2020/12/06 10:31:33;;;;;;;12.33;10.20;;;;;;;;;;5058701;28;20303;-60
2020/12/06 10:33:59;;;;;;;14.00;11.17;;;;;;;;;;5066332;28;20239;-61
2020/12/06 10:36:24;;;;;;;11.23;9.97;;;;;;;;;;5042974;28;20299;-61
2020/12/06 10:38:49;;;;;;;11.60;10.37;;;;;;;;;;5038773;28;20305;-61
2020/12/06 10:41:15;;;;;;;13.13;11.60;;;;;;;;;;5037737;28;20217;-62
2020/12/06 10:43:40;;;;;;;12.13;9.77;;;;;;;;;;5056066;28;20598;-61
2020/12/06 10:46:05;;;;;;;11.97;9.90;;;;;;;;;;5058211;28;20217;-60
2020/12/06 10:48:31;;;;;;;12.20;10.57;;;;;;;;;;5057818;28;20244;-61
2020/12/06 10:50:56;;;;;;;11.90;10.70;;;;;;;;;;5058223;28;20684;-60
2020/12/06 10:53:21;;;;;;;13.40;11.73;;;;;;;;;;5057639;28;20236;-61
2020/12/06 10:55:46;;;;;;;11.13;10.03;;;;;;;;;;5058333;28;20224;-61
2020/12/06 10:58:12;;;;;;;14.70;12.27;;;;;;;;;;5057808;28;20220;-61
2020/12/06 11:00:37;;;;;;;13.37;10.40;;;;;;;;;;5058073;28;20270;-59
2020/12/06 11:03:02;;;;;;;14.13;10.97;;;;;;;;;;5057915;28;20221;-60
2020/12/06 11:05:27;;;;;;;13.43;9.20;;;;;;;;;;5057378;28;20343;-61
2020/12/06 11:07:53;;;;;;;12.53;10.70;;;;;;;;;;5057914;28;20217;-61
2020/12/06 11:10:18;;;;;;;12.77;10.73;;;;;;;;;;5044017;28;20306;-61
2020/12/06 11:12:43;;;;;;;11.63;9.80;;;;;;;;;;5037991;28;20650;-60
2020/12/06 11:15:09;;;;;;;10.67;9.60;;;;;;;;;;5037996;28;20365;-61
2020/12/06 11:17:34;;;;;;;13.50;11.50;;;;;;;;;;5037536;28;20245;-61
2020/12/06 11:19:59;;;;;;;17.83;10.50;;;;;;;;;;5037747;28;20221;-61
2020/12/06 11:22:25;;;;;;;13.23;11.80;;;;;;;;;;5037059;28;20232;-61
2020/12/06 11:24:50;;;;;;;13.13;10.30;;;;;;;;;;5056492;28;20236;-60
2020/12/06 11:27:15;;;;;;;13.70;10.80;;;;;;;;;;5057229;28;20304;-60
2020/12/06 11:29:40;;;;;;;12.10;10.90;;;;;;;;;;5057566;28;20291;-60
2020/12/06 11:32:06;;;;;;;14.27;10.93;;;;;;;;;;5057389;28;20251;-61
2020/12/06 11:34:31;;;;;;;11.00;9.60;;;;;;;;;;5064285;28;20304;-61
2020/12/06 11:36:56;;;;;;;12.37;10.27;;;;;;;;;;5056961;28;20220;-61
2020/12/06 11:39:22;;;;;;;11.70;10.13;;;;;;;;;;5046543;28;20218;-61
2020/12/06 11:41:47;;;;;;;12.70;10.70;;;;;;;;;;5036782;28;20229;-60
2020/12/06 11:44:12;;;;;;;16.90;10.80;;;;;;;;;;5041471;28;20661;-61
2020/12/06 11:46:37;;;;;;;17.63;11.30;;;;;;;;;;5056311;28;20225;-61
2020/12/06 11:49:03;;;;;;;11.07;9.93;;;;;;;;;;5056591;28;20217;-62
2020/12/06 11:51:28;;;;;;;10.63;9.53;;;;;;;;;;5056250;28;20304;-61
2020/12/06 11:53:53;;;;;;;12.87;10.70;;;;;;;;;;5056687;28;20634;-61
2020/12/06 11:56:18;;;;;;;12.13;10.90;;;;;;;;;;5056012;28;20301;-61
2020/12/06 11:58:47;;;;;;;11.27;10.10;;;;;;;;;;5056171;28;20221;-61
2020/12/06 12:01:12;;;;;;;11.90;9.50;;;;;;;;;;5056212;28;20550;-62
2020/12/06 12:03:37;;;;;;;12.47;11.17;;;;;;;;;;5055943;28;20468;-61
2020/12/06 12:06:03;;;;;;;12.73;10.10;;;;;;;;;;5055921;28;20294;-60
2020/12/06 12:08:29;;;;;;;15.40;10.63;;;;;;;;;;5055475;28;20217;-60
2020/12/06 12:10:54;;;;;;;13.00;11.07;;;;;;;;;;5037957;28;20213;-60
2020/12/06 12:13:19;;;;;;;11.43;10.30;;;;;;;;;;5035483;28;20272;-61
2020/12/06 12:15:44;;;;;;;15.70;12.40;;;;;;;;;;5036105;28;20305;-61
2020/12/06 12:18:10;;;;;;;11.13;9.93;;;;;;;;;;5034582;28;20276;-60
2020/12/06 12:20:36;;;;;;;12.10;10.90;;;;;;;;;;5035445;28;20256;-62
2020/12/06 12:23:01;;;;;;;15.30;11.73;;;;;;;;;;5038314;28;20224;-61
2020/12/06 12:25:26;;;;;;;12.83;11.50;;;;;;;;;;5055219;28;20349;-60
2020/12/06 12:27:51;;;;;;;11.50;10.03;;;;;;;;;;5054434;28;20622;-60
2020/12/06 12:30:17;;;;;;;12.17;10.87;;;;;;;;;;5055193;28;20223;-61
2020/12/06 12:32:42;;;;;;;11.17;10.07;;;;;;;;;;5060418;28;20316;-61
2020/12/06 12:35:07;;;;;;;12.50;10.60;;;;;;;;;;5057767;28;20517;-60
2020/12/06 12:37:32;;;;;;;11.80;10.40;;;;;;;;;;5055068;28;20306;-60
2020/12/06 12:39:58;;;;;;;12.27;11.03;;;;;;;;;;5041573;28;20654;-60
2020/12/06 12:42:23;;;;;;;12.50;11.17;;;;;;;;;;5034979;28;20312;-61
2020/12/06 12:44:48;;;;;;;11.87;10.77;;;;;;;;;;5034389;28;20224;-60
2020/12/06 12:47:13;;;;;;;15.03;10.50;;;;;;;;;;5035371;28;20303;-60
2020/12/06 12:49:40;;;;;;;11.83;10.73;;;;;;;;;;5034859;28;20218;-60
2020/12/06 12:52:05;;;;;;;13.60;10.60;;;;;;;;;;5034209;28;20326;-61
2020/12/06 12:54:32;;;;;;;15.50;11.50;;;;;;;;;;5034574;28;20449;-60
2020/12/06 12:56:57;;;;;;;11.10;9.50;;;;;;;;;;5035409;28;20228;-61
2020/12/06 12:59:23;;;;;;;11.10;9.97;;;;;;;;;;5034991;28;20536;-61
2020/12/06 13:01:48;;;;;;;11.00;9.50;;;;;;;;;;5035257;28;20221;-60
2020/12/06 13:04:13;;;;;;;12.97;10.73;;;;;;;;;;5035407;28;20605;-60
2020/12/06 13:06:39;;;;;;;11.27;10.17;;;;;;;;;;5035011;28;20217;-60
2020/12/06 13:09:04;;;;;;;11.80;9.53;;;;;;;;;;5042474;28;20288;-61
2020/12/06 13:11:30;;;;;;;11.60;9.93;;;;;;;;;;5054946;28;20580;-60
2020/12/06 13:14:04;;;;;;;13.00;10.10;;;;;;;;;;5055265;28;20237;-60
2020/12/06 13:16:30;;;;;;;10.50;9.50;;;;;;;;;;5054654;28;20721;-60
2020/12/06 13:18:55;;;;;;;13.30;10.27;;;;;;;;;;5054997;28;20464;-61
2020/12/06 13:21:20;;;;;;;10.70;9.63;;;;;;;;;;5054288;28;20225;-61
2020/12/06 13:23:46;;;;;;;11.70;9.97;;;;;;;;;;5044912;28;20220;-60
2020/12/06 13:26:15;;;;;;;12.60;10.00;;;;;;;;;;5034916;28;20210;-61
2020/12/06 13:28:40;;;;;;;13.37;10.97;;;;;;;;;;5034356;28;20213;-61
2020/12/06 13:31:05;;;;;;;11.47;10.27;;;;;;;;;;5038273;28;20487;-60
2020/12/06 13:33:30;;;;;;;11.60;9.40;;;;;;;;;;5061431;28;20296;-61
2020/12/06 13:35:56;;;;;;;11.20;9.30;;;;;;;;;;5054902;28;20676;-61
2020/12/06 13:38:22;;;;;;;15.30;11.27;;;;;;;;;;5053496;28;20293;-61
2020/12/06 13:40:47;;;;;;;11.23;10.07;;;;;;;;;;5034467;28;20225;-60
2020/12/06 13:43:12;;;;;;;11.67;9.30;;;;;;;;;;5034890;28;20469;-61
2020/12/06 13:45:37;;;;;;;11.10;10.00;;;;;;;;;;5034304;28;20311;-61
2020/12/06 13:48:03;;;;;;;11.33;10.10;;;;;;;;;;5034673;28;20654;-60
2020/12/06 13:50:28;;;;;;;11.17;10.07;;;;;;;;;;5033822;28;20310;-61
2020/12/06 13:52:53;;;;;;;12.77;10.63;;;;;;;;;;5034664;28;20222;-60
2020/12/06 13:55:18;;;;;;;10.77;9.63;;;;;;;;;;5034626;28;20282;-61
2020/12/06 13:57:44;;;;;;;13.67;11.77;;;;;;;;;;5034374;28;20293;-61
2020/12/06 14:00:09;;;;;;;13.07;10.47;;;;;;;;;;5034489;28;20218;-61
2020/12/06 14:02:34;;;;;;;11.60;9.87;;;;;;;;;;5033582;28;20222;-60
2020/12/06 14:04:59;;;;;;;11.50;10.40;;;;;;;;;;5033478;28;20301;-60
2020/12/06 14:07:26;;;;;;;11.70;10.00;;;;;;;;;;5033872;28;20662;-62
2020/12/06 14:09:51;;;;;;;10.50;9.43;;;;;;;;;;5038445;28;20292;-60
2020/12/06 14:12:16;;;;;;;11.33;10.17;;;;;;;;;;5033991;28;20844;-60